Overseas Mindoro — V7RE6 — position and weather

sailwx.info

Track history (hours):
 
Tides and Currents Weather Stations Pressure Air Temp Water Temp Dewpoint Dewpoint Depression Visibility Wind Speed Wind Dir Waves Ship Positions

Overseas Mindoro

Last reported at 2014-Dec-06 23:29 UTC. Time now 2014-Dec-21 17:19 UTC.
Position N 31°56' W 117°42'.
Warning: this ship's position is 14 days out of date.

Length 238 m; draft 8.2 m.

Type: Tanker. MMSI: 538003473.

Date/timePositionNaut miles runAvg speedWind from/ knotsBaromVisibWave heightAir tempDewpointWater temp
2014-Dec-06 23:29N 31°56' W 117°42'1415.1
2014-Dec-06 22:33N 32°10' W 117°43'1515.4
2014-Dec-06 21:34N 32°25' W 117°45'1515.4
2014-Dec-06 20:34N 32°40' W 117°48'1514.8
2014-Dec-06 19:33N 32°55' W 117°50'1111.1
2014-Dec-06 18:33N 33°04' W 117°57'10 9.6
2014-Dec-06 17:33N 33°12' W 118°04'1110.1
2014-Dec-06 16:30N 33°22' W 118°08'22 3.5
2014-Dec-06 10:14N 33°44' W 118°13'0 0.1
2014-Dec-06 09:33N 33°44' W 118°13'0 0.1
2014-Dec-06 08:33N 33°44' W 118°13'0 0.2
2014-Dec-06 07:33N 33°44' W 118°13'0 0.0
2014-Dec-06 06:33N 33°44' W 118°13'0 0.1
2014-Dec-06 05:33N 33°44' W 118°13'0 0.1
2014-Dec-06 04:29N 33°44' W 118°13'0 0.0
2014-Dec-06 03:33N 33°44' W 118°13'0 0.0
2014-Dec-06 02:31N 33°44' W 118°13'0 0.0
2014-Dec-06 01:31N 33°44' W 118°13'30 2.5
2014-Dec-05 13:29N 33°15' W 118°01'9 9.5
2014-Dec-05 12:33N 33°07' W 117°57'9 9.2
2014-Dec-05 11:33N 32°58' W 117°53'9 9.0
2014-Dec-05 10:33N 32°50' W 117°57'9 9.0
2014-Dec-05 09:33N 32°41' W 118°00'8 8.4
2014-Dec-05 08:33N 32°35' W 118°06'  
Track history (hours):
 
Tides and Currents Weather Stations Pressure Air Temp Water Temp Dewpoint Dewpoint Depression Visibility Wind Speed Wind Dir Waves Ship Positions

Overseas Mindoro

Last reported at 2014-Dec-06 23:29 UTC. Time now 2014-Dec-21 17:19 UTC.
Position N 31°56' W 117°42'.
Warning: this ship's position is 14 days out of date.

Length 238 m; draft 8.2 m.

Type: Tanker. MMSI: 538003473.

Date/timePositionNaut miles runAvg speedWind from/ knotsBaromVisibWave heightAir tempDewpointWater temp
2014-Dec-06 23:29N 31°56' W 117°42'1415.1
2014-Dec-06 22:33N 32°10' W 117°43'1515.4
2014-Dec-06 21:34N 32°25' W 117°45'1515.4
2014-Dec-06 20:34N 32°40' W 117°48'1514.8
2014-Dec-06 19:33N 32°55' W 117°50'1111.1
2014-Dec-06 18:33N 33°04' W 117°57'10 9.6
2014-Dec-06 17:33N 33°12' W 118°04'1110.1
2014-Dec-06 16:30N 33°22' W 118°08'22 3.5
2014-Dec-06 10:14N 33°44' W 118°13'0 0.1
2014-Dec-06 09:33N 33°44' W 118°13'0 0.1
2014-Dec-06 08:33N 33°44' W 118°13'0 0.2
2014-Dec-06 07:33N 33°44' W 118°13'0 0.0
2014-Dec-06 06:33N 33°44' W 118°13'0 0.1
2014-Dec-06 05:33N 33°44' W 118°13'0 0.1
2014-Dec-06 04:29N 33°44' W 118°13'0 0.0
2014-Dec-06 03:33N 33°44' W 118°13'0 0.0
2014-Dec-06 02:31N 33°44' W 118°13'0 0.0
2014-Dec-06 01:31N 33°44' W 118°13'30 2.5
2014-Dec-05 13:29N 33°15' W 118°01'9 9.5
2014-Dec-05 12:33N 33°07' W 117°57'9 9.2
2014-Dec-05 11:33N 32°58' W 117°53'9 9.0
2014-Dec-05 10:33N 32°50' W 117°57'9 9.0
2014-Dec-05 09:33N 32°41' W 118°00'8 8.4
2014-Dec-05 08:33N 32°35' W 118°06'  

Dump ship's entire track history